Time;durP1;ratioP1;P1;durP2;ratioP2;P2;SDS_P1;SDS_P2;PMS_P1;PMS_P2;Temp;Humidity;BMP_temperature;BMP_pressure;BME280_temperature;BME280_humidity;BME280_pressure;Samples;Min_cycle;Max_cycle;Signal;HPM_P1;HPM_P2
2022/10/30 00:00:29;;;;;;;23.48;13.63;;;;;;;;;;4918886;29;20044;-79
2022/10/30 00:02:55;;;;;;;31.77;14.38;;;;;;;;;;4918708;29;20488;-79
2022/10/30 00:05:21;;;;;;;25.80;13.25;;;;;;;;;;4918449;29;20042;-79
2022/10/30 00:07:48;;;;;;;26.23;13.57;;;;;;;;;;4918374;29;20051;-79
2022/10/30 00:10:14;;;;;;;23.73;13.27;;;;;;;;;;4932786;29;20119;-79
2022/10/30 00:12:40;;;;;;;30.45;13.75;;;;;;;;;;4918562;29;20488;-79
2022/10/30 00:15:07;;;;;;;23.15;13.70;;;;;;;;;;4918512;29;20039;-79
2022/10/30 00:17:33;;;;;;;33.47;14.40;;;;;;;;;;4918228;29;20047;-79
2022/10/30 00:19:59;;;;;;;25.05;13.35;;;;;;;;;;4918545;29;20059;-79
2022/10/30 00:22:26;;;;;;;25.10;14.10;;;;;;;;;;4918666;29;20044;-79
2022/10/30 00:24:52;;;;;;;26.70;13.75;;;;;;;;;;4918275;29;20071;-79
2022/10/30 00:27:18;;;;;;;26.67;13.20;;;;;;;;;;4918380;29;20048;-79
2022/10/30 00:29:44;;;;;;;28.92;13.25;;;;;;;;;;4918501;29;20128;-79
2022/10/30 00:32:10;;;;;;;28.02;13.43;;;;;;;;;;4918877;29;20048;-79
2022/10/30 00:34:36;;;;;;;31.55;13.60;;;;;;;;;;4918011;29;20074;-79
2022/10/30 00:37:02;;;;;;;29.85;14.82;;;;;;;;;;4918012;29;20047;-79
2022/10/30 00:39:29;;;;;;;24.00;13.68;;;;;;;;;;4918114;29;20056;-80
2022/10/30 00:41:55;;;;;;;29.55;13.75;;;;;;;;;;4917861;29;20456;-80
2022/10/30 00:44:39;;;;;;;25.17;14.07;;;;;;;;;;4921391;29;20044;-79
2022/10/30 00:47:16;;;;;;;30.25;14.60;;;;;;;;;;4922164;29;20067;-79
2022/10/30 00:49:49;;;;;;;27.58;14.43;;;;;;;;;;4922012;29;20055;-80
2022/10/30 00:52:15;;;;;;;34.17;14.85;;;;;;;;;;4922129;29;20094;-80
2022/10/30 00:54:42;;;;;;;34.08;15.45;;;;;;;;;;4922028;29;20082;-79
2022/10/30 00:57:09;;;;;;;32.05;15.38;;;;;;;;;;4922190;29;20040;-80
2022/10/30 00:59:36;;;;;;;34.08;14.75;;;;;;;;;;4921934;29;20048;-79
2022/10/30 01:02:03;;;;;;;23.98;14.18;;;;;;;;;;4922492;29;20028;-79
2022/10/30 01:04:30;;;;;;;31.52;14.80;;;;;;;;;;4922041;29;20070;-79
2022/10/30 01:06:57;;;;;;;30.60;14.43;;;;;;;;;;4921848;29;20038;-79
2022/10/30 01:09:23;;;;;;;27.40;15.18;;;;;;;;;;4921788;29;20134;-79
2022/10/30 01:11:49;;;;;;;27.90;14.55;;;;;;;;;;4921997;29;20399;-79
2022/10/30 01:14:16;;;;;;;29.58;15.00;;;;;;;;;;4921421;29;20496;-79
2022/10/30 01:16:57;;;;;;;27.27;14.52;;;;;;;;;;4921642;29;20100;-79
2022/10/30 01:19:23;;;;;;;;;;;;;;;;;;4921985;29;20127;-79
2022/10/30 01:21:52;;;;;;;31.38;15.18;;;;;;;;;;4921887;29;19960;-79
2022/10/30 01:24:21;;;;;;;31.00;14.63;;;;;;;;;;4921349;29;20071;-79
2022/10/30 01:26:57;;;;;;;23.52;13.85;;;;;;;;;;4936045;29;20036;-79
2022/10/30 01:29:23;;;;;;;27.08;14.25;;;;;;;;;;4921663;29;20111;-79
2022/10/30 01:31:55;;;;;;;27.63;14.00;;;;;;;;;;4921138;29;20500;-79
2022/10/30 01:34:37;;;;;;;22.95;13.80;;;;;;;;;;4921305;29;20062;-79
2022/10/30 01:37:09;;;;;;;27.60;13.48;;;;;;;;;;4921357;29;20075;-79
2022/10/30 01:39:38;;;;;;;26.85;14.40;;;;;;;;;;4921367;29;20084;-79
2022/10/30 01:42:22;;;;;;;24.65;13.77;;;;;;;;;;4920875;29;20062;-79
2022/10/30 01:44:48;;;;;;;27.63;15.07;;;;;;;;;;4920927;29;20040;-79
2022/10/30 01:47:14;;;;;;;24.88;13.70;;;;;;;;;;4921130;29;20044;-79
2022/10/30 01:49:59;;;;;;;22.83;14.55;;;;;;;;;;4921255;29;20080;-79
2022/10/30 01:52:40;;;;;;;29.73;14.32;;;;;;;;;;4920770;29;20068;-79
2022/10/30 01:55:08;;;;;;;;;;;;;;;;;;4920729;29;20064;-79
2022/10/30 01:57:53;;;;;;;27.55;13.43;;;;;;;;;;4920692;29;19985;-79
2022/10/30 02:00:19;;;;;;;29.13;14.60;;;;;;;;;;4920739;29;20063;-79
2022/10/30 02:02:45;;;;;;;28.15;13.18;;;;;;;;;;4921407;29;20048;-79
2022/10/30 02:05:14;;;;;;;27.17;14.45;;;;;;;;;;4920523;29;20500;-79
2022/10/30 02:07:40;;;;;;;34.53;13.52;;;;;;;;;;4920451;29;20451;-79
2022/10/30 02:10:06;;;;;;;26.58;13.25;;;;;;;;;;4920725;29;20044;-79
2022/10/30 02:12:32;;;;;;;30.20;14.00;;;;;;;;;;4920425;29;20044;-79
2022/10/30 02:15:00;;;;;;;26.20;13.15;;;;;;;;;;4920368;29;20139;-79
2022/10/30 02:17:26;;;;;;;29.75;15.02;;;;;;;;;;4920325;29;20044;-79
2022/10/30 02:19:52;;;;;;;27.50;13.93;;;;;;;;;;4920724;29;20060;-79
2022/10/30 02:22:19;;;;;;;24.85;14.15;;;;;;;;;;4920806;29;20028;-79
2022/10/30 02:24:45;;;;;;;29.58;14.40;;;;;;;;;;4920284;29;20048;-79
2022/10/30 02:27:11;;;;;;;29.23;13.32;;;;;;;;;;4920686;29;20134;-79
2022/10/30 02:29:37;;;;;;;26.08;13.38;;;;;;;;;;4920177;29;20504;-79
2022/10/30 02:32:04;;;;;;;29.52;14.35;;;;;;;;;;4920089;29;20040;-79
2022/10/30 02:34:30;;;;;;;29.00;13.18;;;;;;;;;;4920602;29;20044;-79
2022/10/30 02:36:56;;;;;;;25.95;13.75;;;;;;;;;;4919999;29;20135;-79
2022/10/30 02:39:22;;;;;;;27.75;14.25;;;;;;;;;;4920396;29;20048;-79
2022/10/30 02:41:48;;;;;;;29.17;13.15;;;;;;;;;;4920693;29;20055;-79
2022/10/30 02:44:14;;;;;;;25.60;14.18;;;;;;;;;;4920641;29;20119;-79
2022/10/30 02:46:41;;;;;;;33.67;13.48;;;;;;;;;;4920929;29;20123;-79
2022/10/30 02:49:07;;;;;;;29.58;13.77;;;;;;;;;;4920740;29;20104;-79
2022/10/30 02:51:33;;;;;;;26.88;13.77;;;;;;;;;;4920313;29;20135;-79
2022/10/30 02:53:59;;;;;;;37.85;13.35;;;;;;;;;;4920510;29;20483;-79
2022/10/30 02:56:26;;;;;;;25.00;13.45;;;;;;;;;;4920318;29;20032;-79
2022/10/30 02:58:52;;;;;;;26.75;14.40;;;;;;;;;;4920326;29;20052;-79
2022/10/30 03:01:18;;;;;;;28.95;14.27;;;;;;;;;;4920094;29;20040;-79
2022/10/30 03:03:45;;;;;;;26.27;13.68;;;;;;;;;;4920570;29;20040;-80
2022/10/30 03:06:14;;;;;;;30.25;15.00;;;;;;;;;;4920046;29;20047;-79
2022/10/30 03:08:40;;;;;;;28.92;14.80;;;;;;;;;;4920126;29;20082;-79
2022/10/30 03:11:06;;;;;;;28.25;14.88;;;;;;;;;;4920302;29;20099;-78
2022/10/30 03:13:33;;;;;;;26.55;14.27;;;;;;;;;;4919587;29;20126;-79
2022/10/30 03:16:02;;;;;;;32.25;15.27;;;;;;;;;;4920116;29;20040;-79
2022/10/30 03:18:28;;;;;;;25.88;14.35;;;;;;;;;;4919975;29;20079;-80
2022/10/30 03:20:58;;;;;;;29.08;14.52;;;;;;;;;;4919475;29;20051;-79
2022/10/30 03:23:25;;;;;;;31.98;15.32;;;;;;;;;;4934238;29;20032;-80
2022/10/30 03:25:52;;;;;;;25.40;14.10;;;;;;;;;;4919516;29;20044;-80
2022/10/30 03:28:18;;;;;;;31.63;15.60;;;;;;;;;;4920139;29;20476;-79
2022/10/30 03:30:44;;;;;;;30.83;15.00;;;;;;;;;;4919244;29;20071;-79
2022/10/30 03:33:10;;;;;;;33.10;14.95;;;;;;;;;;4920084;29;20119;-79
2022/10/30 03:35:36;;;;;;;33.45;15.25;;;;;;;;;;4919493;29;20048;-79
2022/10/30 03:38:02;;;;;;;33.25;15.18;;;;;;;;;;4919560;29;20052;-79
2022/10/30 03:40:29;;;;;;;30.40;15.43;;;;;;;;;;4918925;29;20079;-80
2022/10/30 03:42:55;;;;;;;28.52;14.23;;;;;;;;;;4919937;29;20044;-80
2022/10/30 03:45:21;;;;;;;31.83;15.13;;;;;;;;;;4919325;29;20047;-80
2022/10/30 03:47:47;;;;;;;28.38;14.15;;;;;;;;;;4919319;29;20043;-80
2022/10/30 03:50:13;;;;;;;23.80;14.38;;;;;;;;;;4919413;29;20107;-79
2022/10/30 03:52:39;;;;;;;31.25;15.20;;;;;;;;;;4919205;29;20036;-80
2022/10/30 03:55:05;;;;;;;32.65;14.38;;;;;;;;;;4919019;29;20075;-80
2022/10/30 03:57:35;;;;;;;30.88;15.57;;;;;;;;;;4919127;29;20126;-80
2022/10/30 04:00:01;;;;;;;30.27;14.65;;;;;;;;;;4919219;29;20059;-80
2022/10/30 04:02:27;;;;;;;29.33;14.07;;;;;;;;;;4919036;29;20036;-79
2022/10/30 04:04:53;;;;;;;26.60;14.82;;;;;;;;;;4918700;29;20496;-79
2022/10/30 04:07:20;;;;;;;27.90;13.88;;;;;;;;;;4918991;29;20068;-79
2022/10/30 04:09:46;;;;;;;30.25;14.20;;;;;;;;;;4919052;29;20063;-80
2022/10/30 04:12:12;;;;;;;27.38;14.32;;;;;;;;;;4918620;29;20044;-79
2022/10/30 04:14:38;;;;;;;28.60;13.55;;;;;;;;;;4919132;29;20153;-79
2022/10/30 04:17:05;;;;;;;30.40;13.60;;;;;;;;;;4919374;29;20506;-79
2022/10/30 04:19:31;;;;;;;26.35;14.75;;;;;;;;;;4918707;29;20059;-79
2022/10/30 04:21:57;;;;;;;26.00;15.02;;;;;;;;;;4918906;29;20475;-79
2022/10/30 04:24:23;;;;;;;30.63;14.65;;;;;;;;;;4918256;29;20141;-79
2022/10/30 04:26:49;;;;;;;32.00;13.85;;;;;;;;;;4918968;29;20519;-79
2022/10/30 04:29:15;;;;;;;29.65;13.60;;;;;;;;;;4919089;29;20062;-80
2022/10/30 04:31:41;;;;;;;30.10;14.07;;;;;;;;;;4918683;29;20095;-79
2022/10/30 04:34:08;;;;;;;27.67;14.00;;;;;;;;;;4918600;29;20133;-79
2022/10/30 04:36:34;;;;;;;33.05;13.35;;;;;;;;;;4918334;29;20075;-79
2022/10/30 04:39:01;;;;;;;29.13;13.45;;;;;;;;;;4918717;29;20056;-79
2022/10/30 04:41:27;;;;;;;28.35;13.25;;;;;;;;;;4918343;29;20139;-79
2022/10/30 04:43:53;;;;;;;28.60;13.80;;;;;;;;;;4918250;29;20072;-79
2022/10/30 04:46:19;;;;;;;28.98;13.00;;;;;;;;;;4918293;29;20044;-79
2022/10/30 04:48:45;;;;;;;26.88;13.05;;;;;;;;;;4918563;29;20508;-79
2022/10/30 04:51:12;;;;;;;30.33;13.48;;;;;;;;;;4918199;29;20103;-79
2022/10/30 04:53:38;;;;;;;30.67;13.73;;;;;;;;;;4918656;29;20044;-80
2022/10/30 04:56:05;;;;;;;30.00;13.27;;;;;;;;;;4918008;29;20071;-80
2022/10/30 04:58:31;;;;;;;27.63;13.25;;;;;;;;;;4917929;29;20080;-80
2022/10/30 05:01:04;;;;;;;27.35;13.70;;;;;;;;;;4918114;29;20444;-79
2022/10/30 05:03:30;;;;;;;33.33;14.18;;;;;;;;;;4917763;29;20535;-79
2022/10/30 05:05:57;;;;;;;24.42;13.57;;;;;;;;;;4917792;29;20142;-79
2022/10/30 05:08:23;;;;;;;31.95;14.80;;;;;;;;;;4918643;29;20052;-79
2022/10/30 05:10:49;;;;;;;26.55;13.52;;;;;;;;;;4917567;29;20071;-79
2022/10/30 05:13:16;;;;;;;29.20;14.65;;;;;;;;;;4932245;29;20123;-79
2022/10/30 05:15:42;;;;;;;30.67;14.30;;;;;;;;;;4918009;29;20533;-79
2022/10/30 05:18:08;;;;;;;34.40;15.40;;;;;;;;;;4917880;29;20096;-79
2022/10/30 05:20:34;;;;;;;36.47;14.38;;;;;;;;;;4918013;29;20048;-79
2022/10/30 05:23:00;;;;;;;27.52;14.63;;;;;;;;;;4917646;29;20036;-79
2022/10/30 05:25:27;;;;;;;31.90;14.95;;;;;;;;;;4917760;29;20122;-79
2022/10/30 05:28:03;;;;;;;29.13;15.30;;;;;;;;;;4917867;29;20052;-79
2022/10/30 05:30:30;;;;;;;34.55;15.63;;;;;;;;;;4919319;29;20040;-79
2022/10/30 05:33:00;;;;;;;30.13;15.18;;;;;;;;;;4921151;29;20040;-79
2022/10/30 05:35:27;;;;;;;37.30;15.00;;;;;;;;;;4921384;29;20051;-79
2022/10/30 05:37:53;;;;;;;29.02;13.90;;;;;;;;;;4921484;29;20060;-79
2022/10/30 05:40:19;;;;;;;27.42;14.82;;;;;;;;;;4921300;29;20040;-79
2022/10/30 05:42:49;;;;;;;33.08;14.98;;;;;;;;;;4921417;29;20067;-79
2022/10/30 05:45:15;;;;;;;28.90;14.80;;;;;;;;;;4921474;29;20051;-79
2022/10/30 05:47:41;;;;;;;36.33;15.00;;;;;;;;;;4921688;29;20123;-80
2022/10/30 05:50:08;;;;;;;33.95;15.15;;;;;;;;;;4921580;29;20518;-79
2022/10/30 05:52:34;;;;;;;31.02;15.13;;;;;;;;;;4921346;29;20048;-79
2022/10/30 05:55:00;;;;;;;27.90;15.10;;;;;;;;;;4921142;29;20036;-79
2022/10/30 05:57:32;;;;;;;29.42;15.13;;;;;;;;;;4921289;29;20095;-79
2022/10/30 05:59:58;;;;;;;30.40;13.82;;;;;;;;;;4921359;29;20071;-79
2022/10/30 06:02:24;;;;;;;28.33;14.50;;;;;;;;;;4920901;29;20074;-79
2022/10/30 06:04:50;;;;;;;35.92;15.23;;;;;;;;;;4921258;29;20043;-79
2022/10/30 06:07:16;;;;;;;32.05;15.40;;;;;;;;;;4920819;29;20048;-79
2022/10/30 06:09:42;;;;;;;28.15;15.25;;;;;;;;;;4920992;29;20048;-79
2022/10/30 06:12:08;;;;;;;26.58;14.38;;;;;;;;;;4921047;29;20133;-79
2022/10/30 06:14:34;;;;;;;31.77;14.18;;;;;;;;;;4920698;29;20546;-79
2022/10/30 06:17:00;;;;;;;32.10;14.88;;;;;;;;;;4920909;29;20040;-80
2022/10/30 06:19:27;;;;;;;28.05;13.55;;;;;;;;;;4921196;29;20048;-79
2022/10/30 06:21:53;;;;;;;34.08;14.55;;;;;;;;;;4920548;29;20052;-80
2022/10/30 06:24:19;;;;;;;35.08;15.52;;;;;;;;;;4920655;29;20518;-79
2022/10/30 06:26:45;;;;;;;28.73;14.00;;;;;;;;;;4935333;29;20066;-79
2022/10/30 06:29:12;;;;;;;31.65;14.38;;;;;;;;;;4935065;29;20058;-79
2022/10/30 06:31:38;;;;;;;35.03;14.73;;;;;;;;;;4920685;29;20039;-79
2022/10/30 06:34:04;;;;;;;34.50;14.32;;;;;;;;;;4921003;29;20043;-79
2022/10/30 06:36:30;;;;;;;27.20;13.60;;;;;;;;;;4920632;29;20096;-79
2022/10/30 06:38:56;;;;;;;23.52;12.63;;;;;;;;;;4920849;29;20060;-79
2022/10/30 06:41:22;;;;;;;26.23;13.18;;;;;;;;;;4919754;29;20056;-80
2022/10/30 06:43:48;;;;;;;31.92;14.48;;;;;;;;;;4920301;29;20031;-79
2022/10/30 06:46:15;;;;;;;28.58;13.25;;;;;;;;;;4919867;29;20048;-80
2022/10/30 06:48:41;;;;;;;27.13;12.85;;;;;;;;;;4920601;29;20051;-79
2022/10/30 06:51:07;;;;;;;25.60;12.73;;;;;;;;;;4920041;29;20044;-79
2022/10/30 06:53:33;;;;;;;25.00;12.77;;;;;;;;;;4919724;29;20043;-79
2022/10/30 06:56:00;;;;;;;36.05;12.70;;;;;;;;;;4919586;29;20048;-79
2022/10/30 06:58:26;;;;;;;24.27;12.32;;;;;;;;;;4919920;29;20044;-79
2022/10/30 07:00:52;;;;;;;21.48;11.98;;;;;;;;;;4919866;29;20043;-79
2022/10/30 07:03:19;;;;;;;27.50;12.13;;;;;;;;;;4919533;29;20067;-79
2022/10/30 07:05:45;;;;;;;25.58;12.52;;;;;;;;;;4934324;29;20044;-79
2022/10/30 07:08:11;;;;;;;22.13;11.80;;;;;;;;;;4919725;29;20044;-80
2022/10/30 07:10:37;;;;;;;33.78;12.52;;;;;;;;;;4919594;29;20052;-80
2022/10/30 07:13:03;;;;;;;28.58;13.02;;;;;;;;;;4919650;29;20044;-80
2022/10/30 07:15:29;;;;;;;25.98;12.65;;;;;;;;;;4919311;29;20570;-80
2022/10/30 07:18:00;;;;;;;24.15;13.20;;;;;;;;;;4934340;29;20098;-80
2022/10/30 07:20:27;;;;;;;26.67;11.70;;;;;;;;;;4919667;29;20040;-80
2022/10/30 07:22:53;;;;;;;22.98;13.00;;;;;;;;;;4919710;29;20048;-80
2022/10/30 07:25:19;;;;;;;33.67;12.98;;;;;;;;;;4919242;29;20063;-80
2022/10/30 07:27:49;;;;;;;27.02;13.20;;;;;;;;;;4919354;29;20044;-80
2022/10/30 07:30:16;;;;;;;23.45;11.70;;;;;;;;;;4919219;29;20051;-80
2022/10/30 07:32:42;;;;;;;21.15;11.73;;;;;;;;;;4919288;29;20040;-80
2022/10/30 07:35:09;;;;;;;25.38;11.63;;;;;;;;;;4919234;29;20040;-80
2022/10/30 07:37:36;;;;;;;25.30;11.27;;;;;;;;;;4918928;29;20051;-79
2022/10/30 07:40:02;;;;;;;29.02;11.45;;;;;;;;;;4919059;29;20044;-80
2022/10/30 07:42:28;;;;;;;24.08;10.95;;;;;;;;;;4917851;29;20561;-80
2022/10/30 07:44:55;;;;;;;25.20;11.30;;;;;;;;;;4917943;29;20032;-80
2022/10/30 07:47:22;;;;;;;23.35;10.80;;;;;;;;;;4929961;29;20072;-80
2022/10/30 07:49:48;;;;;;;28.88;10.60;;;;;;;;;;4913088;29;20052;-80
2022/10/30 07:52:14;;;;;;;23.20;10.70;;;;;;;;;;4918358;29;20071;-80
2022/10/30 07:54:40;;;;;;;22.58;9.60;;;;;;;;;;4911869;29;20060;-80
2022/10/30 07:57:06;;;;;;;26.52;10.38;;;;;;;;;;4918234;29;20071;-80
2022/10/30 07:59:32;;;;;;;27.30;10.23;;;;;;;;;;4918382;29;20048;-80
2022/10/30 08:01:59;;;;;;;22.08;10.70;;;;;;;;;;4918253;29;20036;-80
2022/10/30 08:04:26;;;;;;;17.33;9.20;;;;;;;;;;4918061;29;20039;-79
2022/10/30 08:06:53;;;;;;;22.83;9.23;;;;;;;;;;4918573;29;20040;-78
2022/10/30 08:09:20;;;;;;;18.88;8.32;;;;;;;;;;4918885;29;20099;-79
2022/10/30 08:11:46;;;;;;;22.95;9.55;;;;;;;;;;4918225;29;20051;-79
2022/10/30 08:14:12;;;;;;;26.35;9.60;;;;;;;;;;4918050;29;20063;-80
2022/10/30 08:16:38;;;;;;;25.42;9.82;;;;;;;;;;4917994;29;20043;-79
2022/10/30 08:19:04;;;;;;;22.88;10.23;;;;;;;;;;4918155;29;20063;-79
2022/10/30 08:21:31;;;;;;;29.92;10.55;;;;;;;;;;4918244;29;20036;-79
2022/10/30 08:23:57;;;;;;;21.15;9.85;;;;;;;;;;4918069;29;20511;-79
2022/10/30 08:26:23;;;;;;;19.58;9.45;;;;;;;;;;4918297;29;20036;-79
2022/10/30 08:28:49;;;;;;;27.25;10.25;;;;;;;;;;4918685;29;20059;-79
2022/10/30 08:31:15;;;;;;;26.77;9.25;;;;;;;;;;4917310;29;20036;-78
2022/10/30 08:33:41;;;;;;;18.20;9.60;;;;;;;;;;4918070;29;20052;-78
2022/10/30 08:36:08;;;;;;;18.73;10.00;;;;;;;;;;4918332;29;20126;-78
2022/10/30 08:38:34;;;;;;;19.00;9.05;;;;;;;;;;4933678;29;20059;-78
2022/10/30 08:41:01;;;;;;;21.25;8.82;;;;;;;;;;4917681;29;20063;-78
2022/10/30 08:43:27;;;;;;;21.30;9.32;;;;;;;;;;4917350;29;20047;-76
2022/10/30 08:45:53;;;;;;;25.65;10.02;;;;;;;;;;4918156;29;20067;-77
2022/10/30 08:48:19;;;;;;;22.95;9.25;;;;;;;;;;4918073;29;20052;-75
2022/10/30 08:50:45;;;;;;;19.35;8.38;;;;;;;;;;4919129;29;20059;-76
2022/10/30 08:53:12;;;;;;;22.33;9.73;;;;;;;;;;4918433;29;20040;-76
2022/10/30 08:55:38;;;;;;;23.67;9.10;;;;;;;;;;4928192;29;20078;-75
2022/10/30 08:58:04;;;;;;;19.45;9.13;;;;;;;;;;4919865;29;20154;-77
2022/10/30 09:00:31;;;;;;;20.63;9.07;;;;;;;;;;4915363;29;20107;-76
2022/10/30 09:02:57;;;;;;;24.85;9.20;;;;;;;;;;4913062;29;20068;-77
2022/10/30 09:05:23;;;;;;;22.05;8.63;;;;;;;;;;4920316;29;20048;-77
2022/10/30 09:07:49;;;;;;;20.20;8.40;;;;;;;;;;4921431;29;20048;-78
2022/10/30 09:10:15;;;;;;;28.83;8.93;;;;;;;;;;4920663;29;20519;-76
2022/10/30 09:12:41;;;;;;;22.38;9.45;;;;;;;;;;4921090;29;20566;-77
2022/10/30 09:15:08;;;;;;;17.88;8.23;;;;;;;;;;4921100;29;20103;-77
2022/10/30 09:17:34;;;;;;;20.85;9.32;;;;;;;;;;4920119;29;20040;-77
2022/10/30 09:20:00;;;;;;;25.98;9.10;;;;;;;;;;4932013;29;20106;-76
2022/10/30 09:22:26;;;;;;;24.80;9.68;;;;;;;;;;4920565;29;20040;-76
2022/10/30 09:24:52;;;;;;;27.73;8.88;;;;;;;;;;4919647;29;20052;-77
2022/10/30 09:27:18;;;;;;;17.60;9.13;;;;;;;;;;4920526;29;20036;-77
2022/10/30 09:29:45;;;;;;;24.52;8.75;;;;;;;;;;4919556;29;20051;-76
2022/10/30 09:32:11;;;;;;;26.48;9.10;;;;;;;;;;4916948;29;20124;-77
2022/10/30 09:34:38;;;;;;;23.83;8.63;;;;;;;;;;4920828;29;20046;-77
2022/10/30 09:37:04;;;;;;;20.90;8.82;;;;;;;;;;4920751;29;20048;-77
2022/10/30 09:39:30;;;;;;;22.15;7.90;;;;;;;;;;4919028;29;20059;-77
2022/10/30 09:42:10;;;;;;;17.88;7.85;;;;;;;;;;4919194;29;20496;-79
2022/10/30 09:44:48;;;;;;;25.48;7.82;;;;;;;;;;4916984;29;20048;-77
2022/10/30 09:47:26;;;;;;;21.65;8.38;;;;;;;;;;4915372;29;20416;-79
2022/10/30 09:49:58;;;;;;;21.63;8.75;;;;;;;;;;4917498;29;20040;-80
2022/10/30 09:52:28;;;;;;;39.38;18.92;;;;;;;;;;4910513;29;20131;-80
2022/10/30 09:55:00;;;;;;;25.85;10.95;;;;;;;;;;4919567;29;20036;-78
2022/10/30 09:57:38;;;;;;;16.85;7.20;;;;;;;;;;4920921;29;20052;-75
2022/10/30 10:00:09;;;;;;;20.33;9.25;;;;;;;;;;4920182;29;20052;-75
2022/10/30 10:02:36;;;;;;;18.27;7.05;;;;;;;;;;4917095;29;20048;-74
2022/10/30 10:05:25;;;;;;;19.20;8.05;;;;;;;;;;4917269;29;20061;-75
2022/10/30 10:07:54;;;;;;;28.92;8.02;;;;;;;;;;4916437;29;20050;-73
2022/10/30 10:10:40;;;;;;;24.75;7.70;;;;;;;;;;4920016;29;20546;-72
2022/10/30 10:13:11;;;;;;;23.35;7.60;;;;;;;;;;4919416;29;20036;-74
2022/10/30 10:15:45;;;;;;;22.17;6.88;;;;;;;;;;4917981;29;20063;-72
2022/10/30 10:18:19;;;;;;;21.88;7.07;;;;;;;;;;4921281;29;20051;-74
2022/10/30 10:20:47;;;;;;;23.60;8.80;;;;;;;;;;4917447;29;20044;-72
2022/10/30 10:23:26;;;;;;;20.27;7.15;;;;;;;;;;4916935;29;20040;-72
2022/10/30 10:25:53;;;;;;;21.13;6.50;;;;;;;;;;4919001;29;20048;-73
2022/10/30 10:28:22;;;;;;;16.55;6.25;;;;;;;;;;4915827;29;20051;-73
2022/10/30 10:30:54;;;;;;;20.40;6.95;;;;;;;;;;4918518;29;20044;-73
2022/10/30 10:33:20;;;;;;;19.10;6.82;;;;;;;;;;4919315;29;20459;-75
2022/10/30 10:35:53;;;;;;;17.02;6.95;;;;;;;;;;4918579;29;20048;-74
2022/10/30 10:38:19;;;;;;;20.02;6.40;;;;;;;;;;4918801;29;20635;-74
2022/10/30 10:41:07;;;;;;;18.85;6.13;;;;;;;;;;4917111;29;20074;-77
2022/10/30 10:43:33;;;;;;;14.68;6.68;;;;;;;;;;4909307;29;20059;-78
2022/10/30 10:45:59;;;;;;;18.85;6.32;;;;;;;;;;4916898;29;20448;-74
2022/10/30 10:48:31;;;;;;;21.58;7.13;;;;;;;;;;4917689;29;20051;-71
2022/10/30 10:51:20;;;;;;;22.02;7.22;;;;;;;;;;4914072;29;20088;-72
2022/10/30 10:53:52;;;;;;;22.67;7.18;;;;;;;;;;4917332;29;20131;-71
2022/10/30 10:56:18;;;;;;;22.52;7.05;;;;;;;;;;4902217;29;20055;-72
2022/10/30 10:58:50;;;;;;;16.25;6.40;;;;;;;;;;4919135;29;20052;-71
2022/10/30 11:01:36;;;;;;;20.02;5.72;;;;;;;;;;4916255;29;20056;-73
2022/10/30 11:04:11;;;;;;;17.88;6.25;;;;;;;;;;4913995;29;20040;-71
2022/10/30 11:06:43;;;;;;;17.73;6.63;;;;;;;;;;4918027;29;20051;-74
2022/10/30 11:09:12;;;;;;;17.35;6.35;;;;;;;;;;4917061;29;20052;-74
2022/10/30 11:12:14;;;;;;;19.15;6.53;;;;;;;;;;4918642;29;20103;-72
2022/10/30 11:14:45;;;;;;;15.60;6.03;;;;;;;;;;4915694;29;20036;-73
2022/10/30 11:17:17;;;;;;;15.18;5.80;;;;;;;;;;4918992;29;20071;-73
2022/10/30 11:19:43;;;;;;;27.10;6.30;;;;;;;;;;4917981;29;20052;-72
2022/10/30 11:22:29;;;;;;;17.80;5.88;;;;;;;;;;4915842;29;20060;-72
2022/10/30 11:24:55;;;;;;;16.92;5.43;;;;;;;;;;4915316;29;20056;-73
2022/10/30 11:27:27;;;;;;;19.70;5.90;;;;;;;;;;4917125;29;20095;-72
2022/10/30 11:29:56;;;;;;;14.70;5.75;;;;;;;;;;4917417;29;20052;-72
2022/10/30 11:32:22;;;;;;;16.60;5.28;;;;;;;;;;4918586;29;20067;-72
2022/10/30 11:35:07;;;;;;;13.80;5.13;;;;;;;;;;4918766;29;20551;-73
2022/10/30 11:37:34;;;;;;;22.05;6.13;;;;;;;;;;4918968;29;20499;-72
2022/10/30 11:40:09;;;;;;;12.05;5.45;;;;;;;;;;4917975;29;20099;-72
2022/10/30 11:42:36;;;;;;;17.25;6.07;;;;;;;;;;4917804;29;20055;-72
2022/10/30 11:45:02;;;;;;;14.18;5.60;;;;;;;;;;4918576;29;20103;-72
2022/10/30 11:47:34;;;;;;;18.90;6.10;;;;;;;;;;4918133;29;20568;-72
2022/10/30 11:50:05;;;;;;;16.02;5.35;;;;;;;;;;4917390;29;20130;-72
2022/10/30 11:52:36;;;;;;;17.55;6.25;;;;;;;;;;4920431;29;20040;-72
2022/10/30 11:55:07;;;;;;;16.30;6.18;;;;;;;;;;4915797;29;20048;-72
2022/10/30 11:57:38;;;;;;;16.65;5.88;;;;;;;;;;4915756;29;20494;-72
2022/10/30 12:00:06;;;;;;;17.90;6.00;;;;;;;;;;4912980;29;20051;-72
2022/10/30 12:02:40;;;;;;;15.30;5.25;;;;;;;;;;4918930;29;20091;-72
2022/10/30 12:05:26;;;;;;;21.67;5.95;;;;;;;;;;4917594;29;20052;-72
2022/10/30 12:08:13;;;;;;;18.50;5.95;;;;;;;;;;4916833;29;20054;-72
2022/10/30 12:10:42;;;;;;;23.73;7.30;;;;;;;;;;4908756;29;20071;-72
2022/10/30 12:13:13;;;;;;;14.65;5.35;;;;;;;;;;4904356;29;20087;-72
2022/10/30 12:15:39;;;;;;;17.90;5.82;;;;;;;;;;4916725;29;20052;-72
2022/10/30 12:18:07;;;;;;;13.57;5.05;;;;;;;;;;4917076;29;20063;-72
2022/10/30 12:20:36;;;;;;;12.98;5.50;;;;;;;;;;4918244;29;20102;-73
2022/10/30 12:23:19;;;;;;;18.90;5.63;;;;;;;;;;4918030;29;20044;-72
2022/10/30 12:25:47;;;;;;;13.80;5.18;;;;;;;;;;4926997;29;20040;-71
2022/10/30 12:28:15;;;;;;;19.83;6.43;;;;;;;;;;4917606;29;20516;-72
2022/10/30 12:31:08;;;;;;;18.05;5.97;;;;;;;;;;4912644;29;20048;-72
2022/10/30 12:33:37;;;;;;;17.75;5.55;;;;;;;;;;4911656;29;20067;-73
2022/10/30 12:36:09;;;;;;;21.27;5.43;;;;;;;;;;4911400;29;20044;-72
2022/10/30 12:38:38;;;;;;;24.92;7.07;;;;;;;;;;4915926;29;20059;-73
2022/10/30 12:41:14;;;;;;;17.63;5.60;;;;;;;;;;4916551;29;20497;-73
2022/10/30 12:43:42;;;;;;;21.42;4.95;;;;;;;;;;4915804;29;20119;-71
2022/10/30 12:46:27;;;;;;;18.27;6.13;;;;;;;;;;4915819;29;20040;-73
2022/10/30 12:48:57;;;;;;;30.10;9.68;;;;;;;;;;4913392;29;20095;-73
2022/10/30 12:51:34;;;;;;;18.58;4.80;;;;;;;;;;4915419;29;20531;-73
2022/10/30 12:54:04;;;;;;;18.55;5.72;;;;;;;;;;4917289;29;20151;-73
2022/10/30 12:56:33;;;;;;;15.32;5.28;;;;;;;;;;4917640;29;20048;-73
2022/10/30 12:59:22;;;;;;;20.08;5.35;;;;;;;;;;4917349;29;20532;-73
2022/10/30 13:01:53;;;;;;;18.55;4.85;;;;;;;;;;4917490;29;20048;-73
2022/10/30 13:04:19;;;;;;;;;;;;;;;;;;4918597;29;20040;-73
2022/10/30 13:06:45;;;;;;;10.77;4.82;;;;;;;;;;4918014;29;19911;-73
2022/10/30 13:09:14;;;;;;;16.35;4.93;;;;;;;;;;4917974;29;20532;-73
2022/10/30 13:11:46;;;;;;;19.52;5.03;;;;;;;;;;4916645;29;20400;-73
2022/10/30 13:14:14;;;;;;;9.93;4.40;;;;;;;;;;4917872;29;20044;-73
2022/10/30 13:16:40;;;;;;;17.75;5.60;;;;;;;;;;4917952;29;20127;-73
2022/10/30 13:19:10;;;;;;;17.13;4.88;;;;;;;;;;4917958;29;20491;-73
2022/10/30 13:21:42;;;;;;;17.35;4.97;;;;;;;;;;4917499;29;20074;-73
2022/10/30 13:24:12;;;;;;;15.70;4.93;;;;;;;;;;4917725;29;20091;-73
2022/10/30 13:26:48;;;;;;;15.95;4.72;;;;;;;;;;4917949;29;20040;-73
2022/10/30 13:29:25;;;;;;;20.67;5.20;;;;;;;;;;4917570;29;20405;-73
2022/10/30 13:31:55;;;;;;;16.73;5.43;;;;;;;;;;4917980;29;20048;-73
2022/10/30 13:34:23;;;;;;;;;;;;;;;;;;4918210;29;20051;-73
2022/10/30 13:36:53;;;;;;;16.50;5.15;;;;;;;;;;4917797;29;20385;-73
2022/10/30 13:39:46;;;;;;;19.57;5.23;;;;;;;;;;4917711;29;20056;-73
2022/10/30 13:42:32;;;;;;;22.73;5.57;;;;;;;;;;4909880;29;20492;-73
2022/10/30 13:44:58;;;;;;;16.17;4.78;;;;;;;;;;4913846;29;20508;-73
2022/10/30 13:47:32;;;;;;;12.80;5.00;;;;;;;;;;4917999;29;20048;-73
2022/10/30 13:50:10;;;;;;;13.20;5.25;;;;;;;;;;4918266;29;20075;-73
2022/10/30 13:52:36;;;;;;;15.02;5.10;;;;;;;;;;4920947;29;20040;-73
2022/10/30 13:55:13;;;;;;;13.10;5.15;;;;;;;;;;4921249;29;20100;-73
2022/10/30 13:57:58;;;;;;;14.18;5.25;;;;;;;;;;4921398;29;20044;-73
2022/10/30 14:00:30;;;;;;;16.63;5.03;;;;;;;;;;4920394;29;20095;-76
2022/10/30 14:02:58;;;;;;;17.50;5.18;;;;;;;;;;4920912;29;20484;-73
2022/10/30 14:05:37;;;;;;;17.65;5.25;;;;;;;;;;4903893;29;20063;-77
2022/10/30 14:08:29;;;;;;;15.57;4.93;;;;;;;;;;4919196;29;20036;-72
2022/10/30 14:10:56;;;;;;;15.57;5.75;;;;;;;;;;4920034;29;20063;-74
2022/10/30 14:13:43;;;;;;;11.95;4.25;;;;;;;;;;4919607;29;20063;-73
2022/10/30 14:16:29;;;;;;;17.85;5.28;;;;;;;;;;4915195;29;20052;-72
2022/10/30 14:19:00;;;;;;;23.65;9.02;;;;;;;;;;4915586;29;20091;-73
2022/10/30 14:21:29;;;;;;;15.05;5.20;;;;;;;;;;4917210;29;20091;-72
2022/10/30 14:24:03;;;;;;;19.27;5.45;;;;;;;;;;4921767;29;20051;-71
2022/10/30 14:26:29;;;;;;;16.70;4.88;;;;;;;;;;4918270;29;20055;-73
2022/10/30 14:28:56;;;;;;;15.27;5.07;;;;;;;;;;4919903;29;20127;-72
2022/10/30 14:31:40;;;;;;;18.88;5.60;;;;;;;;;;4919376;29;20048;-73
2022/10/30 14:34:26;;;;;;;18.27;5.88;;;;;;;;;;4917857;29;20044;-72